Forside
METAR-TAF:

METAR-TAF

Lufthavne :

Blanding, Utah, USA

Breddekreds: 37-35-00N, længdekreds: 109-29-00W, højde: 1789 m

Aktuelle vejr

Denne rapport blev lavet for 23 minutter siden, kl. 08:15 UTC
Vind 5 kt fra nordnordøst
Temperatur 3°C
Fugtighed 65%
Tryk 1026 hPa
Sigt: 16.1 km

METAR: KBDG 220815Z AUTO 03005KT 10SM 03/M03 A3029 RMK AO1 T00321030

Tid: 01:38 (08:38 UTC)


TAF: fraværende

Vejrobservationer og prognoser fra mere end 4000 lufthavne (METAR og TAF).

De gule og røde prikker repræsenterer de meteorologiske stationer.

Flyt musen over at se navnet på stationen.

Så klik over at se vejr observationer og prognoser.

At skifte det kort: Klik på de grønne knapper med et sort kors for at zoome ind; på den grønne knap med en bindestreg for at zoome ud; eller på de grønne pile for tilstødende kort.


METAR-TAF: